Time;durP1;ratioP1;P1;durP2;ratioP2;P2;SDS_P1;SDS_P2;PMS_P1;PMS_P2;Temp;Humidity;BMP_temperature;BMP_pressure;BME280_temperature;BME280_humidity;BME280_pressure;Samples;Min_cycle;Max_cycle;Signal;HPM_P1;HPM_P2
2022/11/01 00:00:13;;;;;;;19.63;15.57;;;;;;;;;;5070713;28;20452;-76
2022/11/01 00:02:41;;;;;;;20.33;15.93;;;;;;;;;;5069942;28;20554;-76
2022/11/01 00:05:09;;;;;;;21.83;17.47;;;;;;;;;;5070196;28;20452;-77
2022/11/01 00:07:36;;;;;;;18.27;15.20;;;;;;;;;;5069961;28;20447;-77
2022/11/01 00:10:03;;;;;;;20.77;17.20;;;;;;;;;;5069890;28;20448;-77
2022/11/01 00:12:31;;;;;;;20.17;16.50;;;;;;;;;;5062950;28;20461;-77
2022/11/01 00:14:58;;;;;;;18.60;16.40;;;;;;;;;;5049912;28;20445;-77
2022/11/01 00:17:25;;;;;;;21.93;15.90;;;;;;;;;;5048885;28;20448;-77
2022/11/01 00:19:53;;;;;;;19.10;16.13;;;;;;;;;;5049461;28;20453;-78
2022/11/01 00:22:21;;;;;;;17.27;15.57;;;;;;;;;;5049865;28;20468;-77
2022/11/01 00:24:48;;;;;;;17.17;15.30;;;;;;;;;;5049739;28;20473;-77
2022/11/01 00:27:15;;;;;;;19.27;16.83;;;;;;;;;;5050009;28;20452;-78
2022/11/01 00:29:42;;;;;;;19.23;17.13;;;;;;;;;;5049813;28;20450;-78
2022/11/01 00:32:09;;;;;;;18.13;16.33;;;;;;;;;;5050029;28;20472;-77
2022/11/01 00:34:36;;;;;;;20.73;15.70;;;;;;;;;;5049196;28;20895;-76
2022/11/01 00:37:05;;;;;;;17.60;15.80;;;;;;;;;;5049668;28;20446;-76
2022/11/01 00:39:32;;;;;;;18.27;16.20;;;;;;;;;;5049578;28;20446;-77
2022/11/01 00:41:59;;;;;;;18.67;16.20;;;;;;;;;;5049947;28;20473;-78
2022/11/01 00:44:26;;;;;;;19.37;16.23;;;;;;;;;;5048847;28;20478;-76
2022/11/01 00:46:53;;;;;;;18.70;14.90;;;;;;;;;;5049947;28;20449;-76
2022/11/01 00:49:20;;;;;;;16.80;15.20;;;;;;;;;;5049882;28;20452;-77
2022/11/01 00:51:47;;;;;;;16.57;14.97;;;;;;;;;;5049816;28;20476;-77
2022/11/01 00:54:15;;;;;;;17.20;15.10;;;;;;;;;;5048884;28;20445;-76
2022/11/01 00:56:42;;;;;;;17.20;15.50;;;;;;;;;;5049350;28;20449;-76
2022/11/01 00:59:09;;;;;;;19.00;15.23;;;;;;;;;;5049502;28;20461;-76
2022/11/01 01:01:36;;;;;;;16.80;15.00;;;;;;;;;;5050114;28;20461;-76
2022/11/01 01:04:04;;;;;;;16.43;14.73;;;;;;;;;;5049025;28;20516;-76
2022/11/01 01:06:31;;;;;;;16.97;14.77;;;;;;;;;;5049652;28;20953;-75
2022/11/01 01:08:59;;;;;;;19.43;17.40;;;;;;;;;;5049618;28;20957;-76
2022/11/01 01:11:27;;;;;;;18.10;16.33;;;;;;;;;;5049420;28;20875;-76
2022/11/01 01:13:54;;;;;;;19.13;17.13;;;;;;;;;;5067039;28;20441;-76
2022/11/01 01:16:21;;;;;;;21.60;16.97;;;;;;;;;;5069589;28;20445;-76
2022/11/01 01:18:48;;;;;;;18.90;17.00;;;;;;;;;;5069402;28;20848;-76
2022/11/01 01:21:16;;;;;;;18.20;16.33;;;;;;;;;;5069478;28;20448;-76
2022/11/01 01:23:43;;;;;;;22.40;16.17;;;;;;;;;;5068508;28;20472;-76
2022/11/01 01:26:11;;;;;;;17.90;16.03;;;;;;;;;;5069369;28;20463;-76
2022/11/01 01:28:40;;;;;;;21.20;17.30;;;;;;;;;;5069520;28;20502;-76
2022/11/01 01:31:07;;;;;;;18.07;16.23;;;;;;;;;;5069608;28;20531;-76
2022/11/01 01:33:34;;;;;;;20.23;16.17;;;;;;;;;;5068459;28;20477;-76
2022/11/01 01:36:01;;;;;;;20.70;15.20;;;;;;;;;;5072075;28;20448;-76
2022/11/01 01:38:28;;;;;;;20.23;17.43;;;;;;;;;;5073401;28;20455;-76
2022/11/01 01:41:54;;;;;;;20.90;14.73;;;;;;;;;;5072985;28;20433;-75
2022/11/01 01:43:44;;;;;;;17.17;15.47;;;;;;;;;;5071803;28;20522;-76
2022/11/01 01:46:11;;;;;;;19.63;15.37;;;;;;;;;;5073202;28;20964;-76
2022/11/01 01:48:40;;;;;;;17.23;15.43;;;;;;;;;;5072772;28;20944;-76
2022/11/01 01:51:08;;;;;;;17.50;15.70;;;;;;;;;;5074978;28;20449;-76
2022/11/01 01:53:37;;;;;;;16.07;14.50;;;;;;;;;;5074919;28;20805;-75
2022/11/01 01:56:06;;;;;;;16.50;14.80;;;;;;;;;;5075699;28;20440;-76
2022/11/01 01:58:34;;;;;;;16.03;13.90;;;;;;;;;;5075062;28;20445;-75
2022/11/01 02:01:03;;;;;;;16.43;14.73;;;;;;;;;;5075070;28;20440;-75
2022/11/01 02:03:31;;;;;;;17.60;14.83;;;;;;;;;;5074739;28;20491;-76
2022/11/01 02:05:59;;;;;;;19.27;14.70;;;;;;;;;;5075419;28;20452;-76
2022/11/01 02:08:27;;;;;;;15.90;14.40;;;;;;;;;;5074086;28;20444;-76
2022/11/01 02:10:55;;;;;;;15.97;14.37;;;;;;;;;;5072570;28;20453;-76
2022/11/01 02:13:22;;;;;;;19.43;14.67;;;;;;;;;;5058506;28;20485;-75
2022/11/01 02:15:57;;;;;;;19.13;14.97;;;;;;;;;;5052641;28;20452;-76
2022/11/01 02:18:31;;;;;;;16.67;14.97;;;;;;;;;;5052704;28;20440;-75
2022/11/01 02:21:11;;;;;;;21.37;17.77;;;;;;;;;;5052343;28;20445;-76
2022/11/01 02:23:47;;;;;;;17.23;15.23;;;;;;;;;;5051462;28;20481;-76
2022/11/01 02:26:31;;;;;;;16.93;14.43;;;;;;;;;;5052651;28;20429;-76
2022/11/01 02:29:08;;;;;;;17.40;15.63;;;;;;;;;;5052485;28;20450;-76
2022/11/01 02:31:40;;;;;;;17.50;14.70;;;;;;;;;;5052156;28;20469;-76
2022/11/01 02:34:13;;;;;;;15.63;13.90;;;;;;;;;;5051059;28;20445;-76
2022/11/01 02:36:42;;;;;;;17.33;15.07;;;;;;;;;;5051839;28;20980;-76
2022/11/01 02:39:12;;;;;;;18.50;16.60;;;;;;;;;;5051900;28;20458;-76
2022/11/01 02:41:42;;;;;;;15.43;13.70;;;;;;;;;;5052502;28;20623;-76
2022/11/01 02:44:12;;;;;;;18.70;15.20;;;;;;;;;;5051809;28;20496;-75
2022/11/01 02:49:28;;;;;;;16.80;15.03;;;;;;;;;;5051690;28;20523;-76
2022/11/01 02:51:56;;;;;;;19.87;15.87;;;;;;;;;;5051532;28;20473;-75
2022/11/01 02:54:27;;;;;;;16.07;14.47;;;;;;;;;;5050756;28;20445;-76
2022/11/01 02:56:55;;;;;;;20.73;15.47;;;;;;;;;;5051489;28;20464;-77
2022/11/01 02:59:24;;;;;;;19.73;15.63;;;;;;;;;;5052407;28;20457;-76
2022/11/01 03:01:54;;;;;;;16.77;15.17;;;;;;;;;;5051608;28;20466;-76
2022/11/01 03:04:21;;;;;;;16.70;15.00;;;;;;;;;;5050888;28;20470;-76
2022/11/01 03:06:52;;;;;;;16.13;14.53;;;;;;;;;;5051220;28;20895;-76
2022/11/01 03:09:19;;;;;;;18.63;16.60;;;;;;;;;;5051696;28;20446;-75
2022/11/01 03:11:52;;;;;;;16.30;14.57;;;;;;;;;;5051757;28;20529;-76
2022/11/01 03:14:24;;;;;;;16.40;14.87;;;;;;;;;;5070637;28;20436;-77
2022/11/01 03:16:54;;;;;;;16.40;14.27;;;;;;;;;;5071619;28;20441;-76
2022/11/01 03:19:29;;;;;;;15.97;14.27;;;;;;;;;;5071480;28;20441;-77
2022/11/01 03:22:00;;;;;;;16.30;14.67;;;;;;;;;;5072063;28;20525;-77
2022/11/01 03:24:28;;;;;;;16.60;14.90;;;;;;;;;;5071496;28;20487;-77
2022/11/01 03:26:59;;;;;;;16.77;15.17;;;;;;;;;;5071942;28;20449;-77
2022/11/01 03:29:27;;;;;;;19.07;15.13;;;;;;;;;;5071473;28;20909;-77
2022/11/01 03:31:55;;;;;;;17.10;14.17;;;;;;;;;;5070971;28;20475;-77
2022/11/01 03:34:22;;;;;;;17.13;15.30;;;;;;;;;;5070114;28;20456;-77
2022/11/01 03:36:51;;;;;;;16.47;14.77;;;;;;;;;;5070907;28;20456;-77
2022/11/01 03:39:22;;;;;;;20.10;15.40;;;;;;;;;;5070628;28;20444;-77
2022/11/01 03:41:51;;;;;;;14.67;13.27;;;;;;;;;;5071137;28;20476;-77
2022/11/01 03:44:19;;;;;;;16.53;13.93;;;;;;;;;;5070372;28;20477;-76
2022/11/01 03:46:47;;;;;;;18.70;15.30;;;;;;;;;;5070509;28;20766;-77
2022/11/01 03:49:16;;;;;;;16.33;14.80;;;;;;;;;;5072003;28;20671;-77
2022/11/01 03:51:43;;;;;;;16.13;14.70;;;;;;;;;;5073719;28;20468;-77
2022/11/01 03:54:10;;;;;;;16.27;14.50;;;;;;;;;;5073783;28;20832;-76
2022/11/01 03:56:39;;;;;;;15.63;14.00;;;;;;;;;;5075583;28;20441;-76
2022/11/01 03:59:06;;;;;;;16.70;13.40;;;;;;;;;;5071442;28;20963;-77
2022/11/01 04:01:33;;;;;;;16.43;14.00;;;;;;;;;;5070107;28;20552;-77
2022/11/01 04:04:01;;;;;;;19.67;14.33;;;;;;;;;;5069145;28;20853;-76
2022/11/01 04:06:28;;;;;;;15.07;13.57;;;;;;;;;;5069737;28;20940;-77
2022/11/01 04:08:55;;;;;;;16.00;14.60;;;;;;;;;;5069851;28;20449;-77
2022/11/01 04:11:22;;;;;;;14.37;13.03;;;;;;;;;;5070142;28;20523;-76
2022/11/01 04:13:50;;;;;;;19.07;15.03;;;;;;;;;;5051847;28;20433;-77
2022/11/01 04:21:47;;;;;;;15.73;14.00;;;;;;;;;;5050001;28;20566;-76
2022/11/01 04:24:19;;;;;;;15.80;14.20;;;;;;;;;;5049099;28;20858;-78
2022/11/01 04:26:46;;;;;;;16.53;13.80;;;;;;;;;;5050110;28;20453;-77
2022/11/01 04:29:15;;;;;;;14.93;13.40;;;;;;;;;;5049954;28;20448;-77
2022/11/01 04:31:42;;;;;;;14.80;13.13;;;;;;;;;;5049759;28;21004;-78
2022/11/01 04:34:09;;;;;;;13.90;12.50;;;;;;;;;;5049273;28;20914;-76
2022/11/01 04:36:38;;;;;;;14.50;12.07;;;;;;;;;;5050158;28;20468;-77
2022/11/01 04:39:05;;;;;;;13.90;12.57;;;;;;;;;;5049931;28;20473;-77
2022/11/01 04:41:33;;;;;;;16.43;11.57;;;;;;;;;;5049975;28;20465;-76
2022/11/01 04:44:00;;;;;;;15.50;12.77;;;;;;;;;;5048994;28;20481;-77
2022/11/01 04:46:31;;;;;;;14.07;11.90;;;;;;;;;;5050232;28;20790;-77
2022/11/01 04:48:58;;;;;;;12.33;11.13;;;;;;;;;;5050282;28;20437;-77
2022/11/01 04:51:25;;;;;;;12.07;10.87;;;;;;;;;;5050268;28;20448;-77
2022/11/01 04:53:52;;;;;;;15.37;11.10;;;;;;;;;;5049164;28;21028;-77
2022/11/01 04:56:19;;;;;;;11.30;10.10;;;;;;;;;;5049940;28;20515;-77
2022/11/01 04:58:47;;;;;;;12.87;11.57;;;;;;;;;;5050168;28;20445;-77
2022/11/01 05:01:14;;;;;;;12.13;9.67;;;;;;;;;;5049888;28;20446;-77
2022/11/01 05:03:42;;;;;;;11.17;9.50;;;;;;;;;;5049237;28;20437;-76
2022/11/01 05:06:09;;;;;;;12.50;7.90;;;;;;;;;;5050085;28;20449;-77
2022/11/01 05:08:37;;;;;;;10.77;9.00;;;;;;;;;;5060051;28;20444;-77
2022/11/01 05:11:04;;;;;;;9.87;7.10;;;;;;;;;;5072297;28;20448;-76
2022/11/01 05:13:31;;;;;;;9.43;8.40;;;;;;;;;;5058419;28;20831;-77
2022/11/01 05:15:58;;;;;;;9.93;7.90;;;;;;;;;;5057415;28;20893;-77
2022/11/01 05:18:25;;;;;;;8.87;6.80;;;;;;;;;;5054683;28;20446;-77
2022/11/01 05:20:53;;;;;;;7.20;6.00;;;;;;;;;;5054996;28;20842;-77
2022/11/01 05:23:20;;;;;;;9.50;5.10;;;;;;;;;;5054032;28;20463;-78
2022/11/01 05:25:47;;;;;;;6.27;5.03;;;;;;;;;;5053696;28;20481;-77
2022/11/01 05:28:15;;;;;;;6.13;4.50;;;;;;;;;;5053961;28;20456;-77
2022/11/01 05:30:42;;;;;;;6.90;4.87;;;;;;;;;;5053646;28;20473;-76
2022/11/01 05:33:11;;;;;;;6.20;4.33;;;;;;;;;;5052713;28;20469;-77
2022/11/01 05:35:38;;;;;;;5.23;4.77;;;;;;;;;;5053868;28;20445;-76
2022/11/01 05:38:06;;;;;;;5.60;4.47;;;;;;;;;;5054294;28;20610;-77
2022/11/01 05:40:33;;;;;;;5.73;4.93;;;;;;;;;;5053833;28;20446;-77
2022/11/01 05:43:00;;;;;;;8.10;6.40;;;;;;;;;;5052823;28;20476;-76
2022/11/01 05:45:27;;;;;;;5.80;4.20;;;;;;;;;;5053180;28;20488;-77
2022/11/01 05:47:55;;;;;;;4.83;4.43;;;;;;;;;;5053021;28;20468;-77
2022/11/01 05:50:22;;;;;;;7.30;4.70;;;;;;;;;;5053168;28;20453;-77
2022/11/01 05:52:49;;;;;;;4.70;3.10;;;;;;;;;;5051969;28;20469;-77
2022/11/01 05:55:18;;;;;;;2.90;2.70;;;;;;;;;;5052503;28;20442;-77
2022/11/01 05:57:45;;;;;;;5.10;2.80;;;;;;;;;;5052830;28;20829;-77
2022/11/01 06:00:13;;;;;;;3.40;2.40;;;;;;;;;;5053094;28;20828;-77
2022/11/01 06:02:40;;;;;;;3.83;1.90;;;;;;;;;;5051930;28;20466;-77
2022/11/01 06:05:07;;;;;;;2.27;2.17;;;;;;;;;;5052734;28;20481;-77
2022/11/01 06:07:35;;;;;;;2.60;2.40;;;;;;;;;;5053056;28;20879;-77
2022/11/01 06:10:02;;;;;;;2.40;2.30;;;;;;;;;;5052663;28;20449;-76
2022/11/01 06:12:30;;;;;;;3.20;2.50;;;;;;;;;;5058235;28;21041;-77
2022/11/01 06:14:57;;;;;;;3.30;2.60;;;;;;;;;;5072321;28;20445;-77
2022/11/01 06:17:25;;;;;;;4.37;2.53;;;;;;;;;;5072364;28;20445;-77
2022/11/01 06:19:52;;;;;;;3.70;2.20;;;;;;;;;;5072044;28;20441;-77
2022/11/01 06:22:19;;;;;;;5.80;2.60;;;;;;;;;;5072179;28;20464;-77
2022/11/01 06:24:46;;;;;;;3.07;2.07;;;;;;;;;;5071566;28;20485;-77
2022/11/01 06:27:13;;;;;;;2.90;1.80;;;;;;;;;;5072400;28;20463;-77
2022/11/01 06:29:41;;;;;;;2.20;2.07;;;;;;;;;;5072189;28;20440;-76
2022/11/01 06:32:09;;;;;;;2.77;2.10;;;;;;;;;;5072469;28;20468;-76
2022/11/01 06:34:36;;;;;;;3.20;3.00;;;;;;;;;;5071141;28;20483;-77
2022/11/01 06:37:03;;;;;;;2.63;2.43;;;;;;;;;;5072154;28;20448;-77
2022/11/01 06:39:30;;;;;;;2.50;1.80;;;;;;;;;;5072193;28;20448;-76
2022/11/01 06:41:57;;;;;;;3.43;2.40;;;;;;;;;;5073277;28;20464;-77
2022/11/01 06:44:24;;;;;;;2.83;2.63;;;;;;;;;;5071253;28;20979;-77
2022/11/01 06:46:53;;;;;;;4.43;2.13;;;;;;;;;;5071755;28;20916;-77
2022/11/01 06:49:20;;;;;;;3.60;2.90;;;;;;;;;;5072399;28;20454;-77
2022/11/01 06:51:47;;;;;;;3.80;3.20;;;;;;;;;;5072383;28;20468;-77
2022/11/01 06:54:14;;;;;;;3.87;3.47;;;;;;;;;;5070852;28;20437;-77
2022/11/01 06:56:41;;;;;;;5.30;3.60;;;;;;;;;;5068195;28;20436;-76
2022/11/01 06:59:09;;;;;;;3.97;2.50;;;;;;;;;;5071565;28;20439;-78
2022/11/01 07:01:36;;;;;;;2.53;2.00;;;;;;;;;;5071035;28;21073;-78
2022/11/01 07:04:04;;;;;;;2.63;2.43;;;;;;;;;;5070933;28;20433;-77
2022/11/01 07:06:31;;;;;;;4.63;2.50;;;;;;;;;;5071835;28;20871;-78
2022/11/01 07:08:59;;;;;;;4.17;2.10;;;;;;;;;;5071924;28;20924;-78
2022/11/01 07:11:26;;;;;;;2.60;2.40;;;;;;;;;;5071639;28;20445;-78
2022/11/01 07:13:53;;;;;;;3.70;3.30;;;;;;;;;;5053275;28;20492;-77
2022/11/01 07:16:20;;;;;;;3.93;2.73;;;;;;;;;;5056271;28;20449;-77
2022/11/01 07:18:47;;;;;;;3.13;2.70;;;;;;;;;;5072351;28;20471;-77
2022/11/01 07:21:16;;;;;;;3.30;3.00;;;;;;;;;;5058093;28;20984;-77
2022/11/01 07:23:43;;;;;;;3.50;2.90;;;;;;;;;;5055305;28;20936;-78
2022/11/01 07:26:10;;;;;;;3.43;3.13;;;;;;;;;;5058336;28;20482;-77
2022/11/01 07:28:38;;;;;;;3.10;2.90;;;;;;;;;;5076625;28;20531;-78
2022/11/01 07:31:05;;;;;;;3.83;3.17;;;;;;;;;;5079987;28;20468;-77
2022/11/01 07:33:33;;;;;;;3.07;2.83;;;;;;;;;;5084922;28;20476;-77
2022/11/01 07:36:01;;;;;;;3.20;2.90;;;;;;;;;;5086071;28;20436;-76
2022/11/01 07:38:29;;;;;;;3.93;3.20;;;;;;;;;;5085528;28;20448;-78
2022/11/01 07:40:56;;;;;;;4.30;3.00;;;;;;;;;;5083378;28;20866;-77
2022/11/01 07:43:23;;;;;;;3.80;3.50;;;;;;;;;;5082960;28;21064;-77
2022/11/01 07:45:50;;;;;;;5.00;3.50;;;;;;;;;;5082732;28;20481;-76
2022/11/01 07:48:21;;;;;;;4.33;3.73;;;;;;;;;;5080501;28;20444;-77
2022/11/01 07:50:48;;;;;;;3.30;3.00;;;;;;;;;;5080877;28;20429;-77
2022/11/01 07:53:16;;;;;;;5.40;3.40;;;;;;;;;;5079484;28;20849;-77
2022/11/01 07:55:45;;;;;;;4.20;3.80;;;;;;;;;;5078441;28;20444;-77
2022/11/01 07:58:13;;;;;;;5.53;5.10;;;;;;;;;;5070220;28;20445;-77
2022/11/01 08:00:40;;;;;;;7.30;5.20;;;;;;;;;;5064097;28;20882;-78
2022/11/01 08:03:08;;;;;;;4.60;4.10;;;;;;;;;;5070226;28;20460;-78
2022/11/01 08:05:36;;;;;;;4.03;3.60;;;;;;;;;;5070596;28;20500;-78
2022/11/01 08:08:04;;;;;;;5.70;3.90;;;;;;;;;;5070863;28;20459;-76
2022/11/01 08:10:31;;;;;;;4.87;4.30;;;;;;;;;;5071015;28;20445;-78
2022/11/01 08:13:03;;;;;;;3.97;3.67;;;;;;;;;;5069821;28;20490;-78
2022/11/01 08:15:31;;;;;;;6.80;4.10;;;;;;;;;;5071893;28;20452;-78
2022/11/01 08:17:58;;;;;;;2.90;2.70;;;;;;;;;;5070442;28;20495;-78
2022/11/01 08:20:26;;;;;;;2.83;2.33;;;;;;;;;;5070888;28;20527;-78
2022/11/01 08:22:53;;;;;;;2.83;2.50;;;;;;;;;;5069612;28;20840;-78
2022/11/01 08:25:20;;;;;;;2.93;2.73;;;;;;;;;;5071906;28;20473;-78
2022/11/01 08:27:48;;;;;;;4.50;3.60;;;;;;;;;;5072539;28;20955;-77
2022/11/01 08:30:16;;;;;;;6.30;3.53;;;;;;;;;;5071791;28;20445;-78
2022/11/01 08:32:44;;;;;;;3.10;2.80;;;;;;;;;;5070205;28;20468;-78
2022/11/01 08:35:11;;;;;;;3.43;3.10;;;;;;;;;;5070563;28;20421;-80
2022/11/01 08:37:38;;;;;;;3.87;2.40;;;;;;;;;;5070313;28;20445;-77
2022/11/01 08:40:06;;;;;;;4.00;3.40;;;;;;;;;;5070860;28;20966;-77
2022/11/01 08:42:33;;;;;;;4.10;3.70;;;;;;;;;;5069969;28;20460;-77
2022/11/01 08:45:00;;;;;;;3.30;3.00;;;;;;;;;;5061784;28;21000;-76
2022/11/01 08:47:29;;;;;;;2.87;2.70;;;;;;;;;;5072115;28;20850;-76
2022/11/01 08:49:56;;;;;;;2.80;2.60;;;;;;;;;;5075599;28;20445;-77
2022/11/01 08:52:24;;;;;;;2.20;2.10;;;;;;;;;;5074823;28;20468;-77
2022/11/01 08:54:51;;;;;;;2.33;2.13;;;;;;;;;;5073694;28;20523;-77
2022/11/01 08:57:18;;;;;;;2.70;2.37;;;;;;;;;;5073984;28;20444;-77
2022/11/01 08:59:45;;;;;;;1.77;1.67;;;;;;;;;;5075146;28;20458;-77
2022/11/01 09:02:12;;;;;;;3.03;2.00;;;;;;;;;;5074241;28;20464;-78
2022/11/01 09:04:41;;;;;;;2.37;1.73;;;;;;;;;;5073485;28;20539;-75
2022/11/01 09:07:08;;;;;;;2.20;2.00;;;;;;;;;;5074225;28;20444;-77
2022/11/01 09:09:35;;;;;;;0.97;0.97;;;;;;;;;;5073786;28;20447;-77
2022/11/01 09:12:04;;;;;;;1.10;1.10;;;;;;;;;;5071180;28;20985;-77
2022/11/01 09:14:31;;;;;;;1.80;1.00;;;;;;;;;;5053001;28;20441;-77
2022/11/01 09:16:58;;;;;;;1.63;1.20;;;;;;;;;;5053506;28;20445;-79
2022/11/01 09:19:25;;;;;;;1.40;1.13;;;;;;;;;;5053650;28;20449;-77
2022/11/01 09:21:53;;;;;;;1.70;1.20;;;;;;;;;;5053938;28;20469;-75
2022/11/01 09:24:20;;;;;;;1.40;1.30;;;;;;;;;;5052741;28;20965;-76
2022/11/01 09:26:47;;;;;;;1.30;1.30;;;;;;;;;;5053364;28;21144;-76
2022/11/01 09:29:17;;;;;;;1.37;1.27;;;;;;;;;;5053226;28;20961;-76
2022/11/01 09:31:44;;;;;;;2.23;1.67;;;;;;;;;;5053668;28;20488;-77
2022/11/01 09:34:11;;;;;;;1.70;1.60;;;;;;;;;;5052957;28;20457;-77
2022/11/01 09:36:38;;;;;;;1.50;1.40;;;;;;;;;;5053402;28;20792;-76
2022/11/01 09:39:07;;;;;;;2.40;1.23;;;;;;;;;;5053713;28;20941;-77
2022/11/01 09:41:37;;;;;;;1.10;1.00;;;;;;;;;;5053733;28;20472;-77
2022/11/01 09:44:05;;;;;;;0.90;0.90;;;;;;;;;;5054231;28;20437;-76
2022/11/01 09:46:33;;;;;;;1.30;1.30;;;;;;;;;;5053734;28;20897;-76
2022/11/01 09:49:02;;;;;;;1.20;1.10;;;;;;;;;;5053601;28;20456;-77
2022/11/01 09:51:29;;;;;;;0.93;0.90;;;;;;;;;;5053665;28;20445;-76
2022/11/01 09:53:57;;;;;;;1.17;1.10;;;;;;;;;;5054595;28;20446;-77
2022/11/01 09:56:29;;;;;;;1.23;0.80;;;;;;;;;;5058891;28;20540;-78
2022/11/01 09:59:00;;;;;;;1.33;0.97;;;;;;;;;;5058128;28;20452;-77
2022/11/01 10:01:39;;;;;;;1.73;0.80;;;;;;;;;;5056729;28;20910;-77
2022/11/01 10:04:16;;;;;;;0.80;0.80;;;;;;;;;;5056458;28;20914;-79
2022/11/01 10:06:46;;;;;;;0.70;0.70;;;;;;;;;;5072622;28;20460;-76
2022/11/01 10:09:17;;;;;;;1.00;1.00;;;;;;;;;;5075234;28;20440;-78
2022/11/01 10:11:59;;;;;;;1.23;0.80;;;;;;;;;;5072662;28;20463;-78
2022/11/01 10:14:34;;;;;;;1.00;0.90;;;;;;;;;;5052592;28;20437;-79
2022/11/01 10:17:06;;;;;;;1.50;1.13;;;;;;;;;;5052594;28;20421;-77
2022/11/01 10:19:34;;;;;;;1.13;0.83;;;;;;;;;;5052672;28;20426;-77
2022/11/01 10:22:05;;;;;;;1.20;1.10;;;;;;;;;;5052597;28;20556;-78
2022/11/01 10:24:34;;;;;;;2.83;1.10;;;;;;;;;;5052011;28;20430;-77
2022/11/01 10:27:05;;;;;;;1.43;1.07;;;;;;;;;;5052149;28;20516;-77
2022/11/01 10:29:37;;;;;;;1.00;1.00;;;;;;;;;;5052494;28;20522;-78
2022/11/01 10:32:04;;;;;;;1.50;0.93;;;;;;;;;;5052087;28;20466;-77
2022/11/01 10:34:33;;;;;;;0.97;0.97;;;;;;;;;;5052031;28;20458;-78
2022/11/01 10:37:06;;;;;;;0.90;0.90;;;;;;;;;;5060191;28;20524;-76
2022/11/01 10:39:37;;;;;;;5.80;0.93;;;;;;;;;;5072700;28;20459;-78
2022/11/01 10:42:09;;;;;;;1.53;1.07;;;;;;;;;;5071948;28;20559;-78
2022/11/01 10:44:40;;;;;;;1.80;1.13;;;;;;;;;;5071402;28;20457;-77
2022/11/01 10:47:08;;;;;;;0.83;0.70;;;;;;;;;;5071737;28;20487;-77
2022/11/01 10:49:36;;;;;;;1.13;1.10;;;;;;;;;;5071608;28;20896;-77
2022/11/01 10:52:06;;;;;;;1.57;1.03;;;;;;;;;;5071475;28;20460;-78
2022/11/01 10:54:34;;;;;;;1.13;1.03;;;;;;;;;;5070764;28;20893;-77
2022/11/01 10:57:02;;;;;;;2.10;1.10;;;;;;;;;;5071771;28;20551;-77
2022/11/01 10:59:34;;;;;;;1.10;1.00;;;;;;;;;;5072015;28;20456;-77
2022/11/01 11:02:04;;;;;;;1.53;1.23;;;;;;;;;;5071698;28;20477;-77
2022/11/01 11:04:31;;;;;;;1.13;1.10;;;;;;;;;;5071242;28;20499;-77
2022/11/01 11:06:58;;;;;;;1.30;1.20;;;;;;;;;;5071469;28;20487;-77
2022/11/01 11:09:28;;;;;;;1.10;1.00;;;;;;;;;;5070671;28;20487;-77
2022/11/01 11:11:58;;;;;;;1.30;1.20;;;;;;;;;;5071401;28;20467;-77
2022/11/01 11:14:25;;;;;;;2.20;1.03;;;;;;;;;;5070449;28;20445;-77
2022/11/01 11:16:55;;;;;;;1.40;1.10;;;;;;;;;;5071303;28;20476;-76
2022/11/01 11:19:24;;;;;;;1.40;1.30;;;;;;;;;;5072010;28;20437;-77
2022/11/01 11:21:52;;;;;;;1.70;1.07;;;;;;;;;;5071715;28;20514;-78
2022/11/01 11:24:21;;;;;;;3.10;1.10;;;;;;;;;;5071216;28;20445;-77
2022/11/01 11:26:49;;;;;;;2.23;1.10;;;;;;;;;;5071264;28;20515;-78
2022/11/01 11:29:25;;;;;;;1.63;1.20;;;;;;;;;;5071254;28;20457;-78
2022/11/01 11:31:58;;;;;;;1.00;1.00;;;;;;;;;;5071115;28;21002;-78
2022/11/01 11:34:27;;;;;;;1.90;1.17;;;;;;;;;;5072108;28;20475;-77
2022/11/01 11:36:55;;;;;;;1.43;1.13;;;;;;;;;;5072089;28;20447;-77
2022/11/01 11:39:26;;;;;;;1.93;0.90;;;;;;;;;;5071330;28;20455;-77
2022/11/01 11:41:53;;;;;;;1.00;1.00;;;;;;;;;;5070672;28;20460;-77
2022/11/01 11:44:38;;;;;;;1.13;1.00;;;;;;;;;;5070478;28;20453;-77
2022/11/01 11:47:17;;;;;;;1.50;1.40;;;;;;;;;;5071650;28;20514;-76
2022/11/01 11:49:44;;;;;;;0.90;0.90;;;;;;;;;;5071692;28;20473;-77
2022/11/01 11:52:14;;;;;;;2.30;1.57;;;;;;;;;;5070770;28;20467;-77
2022/11/01 11:54:42;;;;;;;1.10;1.10;;;;;;;;;;5069964;28;20864;-78
2022/11/01 11:57:11;;;;;;;3.73;1.73;;;;;;;;;;5070305;28;20998;-76
2022/11/01 11:59:38;;;;;;;1.43;1.10;;;;;;;;;;5070686;28;20456;-77
2022/11/01 12:02:15;;;;;;;4.77;1.40;;;;;;;;;;5070745;28;20456;-77
2022/11/01 12:04:45;;;;;;;1.50;1.40;;;;;;;;;;5070136;28;20793;-77
2022/11/01 12:07:23;;;;;;;1.60;1.30;;;;;;;;;;5070242;28;21104;-78
2022/11/01 12:09:50;;;;;;;2.43;1.33;;;;;;;;;;5070522;28;20421;-77
2022/11/01 12:12:18;;;;;;;2.20;2.00;;;;;;;;;;5065900;28;20457;-78
2022/11/01 12:14:45;;;;;;;1.20;1.13;;;;;;;;;;5049810;28;20970;-77
2022/11/01 12:17:27;;;;;;;1.20;1.10;;;;;;;;;;5050754;28;20444;-78
2022/11/01 12:19:59;;;;;;;2.00;1.37;;;;;;;;;;5050309;28;20460;-77
2022/11/01 12:22:29;;;;;;;2.07;1.63;;;;;;;;;;5050470;28;20465;-76
2022/11/01 12:24:57;;;;;;;3.37;2.27;;;;;;;;;;5050536;28;20445;-77
2022/11/01 12:27:26;;;;;;;4.07;2.30;;;;;;;;;;5050772;28;20879;-77
2022/11/01 12:29:55;;;;;;;4.83;2.37;;;;;;;;;;5050465;28;20560;-77
2022/11/01 12:32:26;;;;;;;5.20;2.57;;;;;;;;;;5049917;28;20466;-77
2022/11/01 12:34:55;;;;;;;2.53;2.20;;;;;;;;;;5049647;28;20491;-78
2022/11/01 12:37:25;;;;;;;4.27;2.00;;;;;;;;;;5050299;28;20941;-77
2022/11/01 12:39:54;;;;;;;2.20;1.87;;;;;;;;;;5050561;28;20991;-76
2022/11/01 12:42:25;;;;;;;5.80;2.17;;;;;;;;;;5050090;28;20469;-77
2022/11/01 12:44:53;;;;;;;2.60;2.10;;;;;;;;;;5049717;28;20804;-77
2022/11/01 12:47:22;;;;;;;4.63;1.97;;;;;;;;;;5050176;28;20488;-76
2022/11/01 12:49:54;;;;;;;4.70;2.83;;;;;;;;;;5050068;28;20452;-78
2022/11/01 12:52:26;;;;;;;4.90;3.03;;;;;;;;;;5050217;28;20595;-76
2022/11/01 12:54:58;;;;;;;5.70;3.97;;;;;;;;;;5049988;28;20513;-76
2022/11/01 12:57:25;;;;;;;2.50;2.30;;;;;;;;;;5050340;28;20426;-77
2022/11/01 12:59:52;;;;;;;3.70;1.73;;;;;;;;;;5050346;28;20446;-76
2022/11/01 13:02:29;;;;;;;3.43;1.73;;;;;;;;;;5049926;28;20480;-76
2022/11/01 13:04:59;;;;;;;2.67;2.07;;;;;;;;;;5050036;28;20540;-77
2022/11/01 13:07:31;;;;;;;4.00;2.43;;;;;;;;;;5050383;28;20484;-79
2022/11/01 13:10:04;;;;;;;3.87;2.33;;;;;;;;;;5049785;28;20460;-76
2022/11/01 13:12:35;;;;;;;3.20;2.00;;;;;;;;;;5049651;28;20854;-78
2022/11/01 13:15:06;;;;;;;2.63;1.83;;;;;;;;;;5049613;28;20924;-77
2022/11/01 13:17:38;;;;;;;3.70;2.37;;;;;;;;;;5050034;28;20457;-77
2022/11/01 13:20:13;;;;;;;5.70;2.50;;;;;;;;;;5050851;28;20441;-77
2022/11/01 13:22:46;;;;;;;5.73;3.60;;;;;;;;;;5049346;28;20457;-76
2022/11/01 13:25:17;;;;;;;4.17;2.80;;;;;;;;;;5049802;28;20433;-77
2022/11/01 13:27:48;;;;;;;2.53;2.20;;;;;;;;;;5049382;28;20485;-76
2022/11/01 13:30:17;;;;;;;5.93;2.50;;;;;;;;;;5049992;28;20434;-77
2022/11/01 13:32:49;;;;;;;6.17;2.27;;;;;;;;;;5052064;28;20477;-77
2022/11/01 13:35:31;;;;;;;6.73;2.23;;;;;;;;;;5053527;28;20430;-77
2022/11/01 13:38:03;;;;;;;6.53;1.70;;;;;;;;;;5053504;28;20467;-77
2022/11/01 13:40:35;;;;;;;6.20;2.30;;;;;;;;;;5053605;28;20433;-76
2022/11/01 13:43:05;;;;;;;5.10;2.07;;;;;;;;;;5057185;28;20477;-75
2022/11/01 13:45:45;;;;;;;2.57;1.90;;;;;;;;;;5055091;28;20445;-77
2022/11/01 13:48:16;;;;;;;3.10;1.97;;;;;;;;;;5059547;28;20508;-77
2022/11/01 13:50:47;;;;;;;4.83;1.60;;;;;;;;;;5064258;28;20441;-77
2022/11/01 13:53:19;;;;;;;2.60;1.80;;;;;;;;;;5072966;28;20472;-77
2022/11/01 13:55:50;;;;;;;3.07;2.13;;;;;;;;;;5073380;28;20456;-76
2022/11/01 13:58:18;;;;;;;2.30;1.80;;;;;;;;;;5073168;28;21057;-77
2022/11/01 14:00:48;;;;;;;5.07;2.40;;;;;;;;;;5072854;28;20917;-76
2022/11/01 14:03:20;;;;;;;3.43;2.30;;;;;;;;;;5071430;28;20464;-76
2022/11/01 14:05:48;;;;;;;4.10;2.30;;;;;;;;;;5061896;28;20548;-76
2022/11/01 14:08:30;;;;;;;4.73;2.03;;;;;;;;;;5072423;28;20476;-76
2022/11/01 14:10:58;;;;;;;3.70;2.40;;;;;;;;;;5070803;28;20452;-78
2022/11/01 14:13:36;;;;;;;3.97;2.03;;;;;;;;;;5071696;28;20463;-77
2022/11/01 14:16:18;;;;;;;3.10;1.80;;;;;;;;;;5072659;28;20476;-77
2022/11/01 14:19:04;;;;;;;3.10;2.00;;;;;;;;;;5072719;28;20445;-77
2022/11/01 14:21:32;;;;;;;3.13;2.07;;;;;;;;;;5072286;28;20983;-76
2022/11/01 14:24:00;;;;;;;3.43;2.10;;;;;;;;;;5072300;28;20452;-77
2022/11/01 14:26:36;;;;;;;2.07;1.70;;;;;;;;;;5072818;28;20440;-76
2022/11/01 14:29:07;;;;;;;4.83;2.00;;;;;;;;;;5072668;28;20440;-76
2022/11/01 14:31:35;;;;;;;4.90;1.83;;;;;;;;;;5072742;28;20469;-78
2022/11/01 14:34:06;;;;;;;2.03;1.83;;;;;;;;;;5071900;28;20468;-78
2022/11/01 14:36:34;;;;;;;4.70;2.27;;;;;;;;;;5072312;28;20429;-77
2022/11/01 14:39:08;;;;;;;3.43;2.00;;;;;;;;;;5072396;28;20447;-76
2022/11/01 14:41:38;;;;;;;3.20;1.90;;;;;;;;;;5072408;28;20581;-77
2022/11/01 14:44:10;;;;;;;7.60;2.17;;;;;;;;;;5071621;28;20432;-77
2022/11/01 14:46:38;;;;;;;3.53;2.37;;;;;;;;;;5072137;28;20964;-77
2022/11/01 14:49:07;;;;;;;1.77;1.67;;;;;;;;;;5072638;28;20448;-78
2022/11/01 14:51:37;;;;;;;3.00;2.30;;;;;;;;;;5072058;28;20477;-76